sensor_id;sensor_type;location;lat;lon;timestamp;P1;durP1;ratioP1;P2;durP2;ratioP2
8466;SDS011;4270;48.148;11.648;2022-10-14T00:01:08;8.17;;;5.77;;
8466;SDS011;4270;48.148;11.648;2022-10-14T00:03:34;9.13;;;5.53;;
8466;SDS011;4270;48.148;11.648;2022-10-14T00:06:02;10.03;;;6.60;;
8466;SDS011;4270;48.148;11.648;2022-10-14T00:08:27;8.73;;;6.47;;
8466;SDS011;4270;48.148;11.648;2022-10-14T00:10:53;8.23;;;6.40;;
8466;SDS011;4270;48.148;11.648;2022-10-14T00:13:18;12.13;;;6.87;;
8466;SDS011;4270;48.148;11.648;2022-10-14T00:15:43;9.47;;;6.33;;
8466;SDS011;4270;48.148;11.648;2022-10-14T00:18:08;7.83;;;6.53;;
8466;SDS011;4270;48.148;11.648;2022-10-14T00:20:34;8.17;;;6.50;;
8466;SDS011;4270;48.148;11.648;2022-10-14T00:22:59;13.37;;;7.40;;
8466;SDS011;4270;48.148;11.648;2022-10-14T00:25:24;11.40;;;6.90;;
8466;SDS011;4270;48.148;11.648;2022-10-14T00:27:50;10.33;;;6.37;;
8466;SDS011;4270;48.148;11.648;2022-10-14T00:30:15;8.83;;;7.57;;
8466;SDS011;4270;48.148;11.648;2022-10-14T00:32:41;10.90;;;7.40;;
8466;SDS011;4270;48.148;11.648;2022-10-14T00:35:06;9.40;;;6.63;;
8466;SDS011;4270;48.148;11.648;2022-10-14T00:37:31;6.83;;;6.10;;
8466;SDS011;4270;48.148;11.648;2022-10-14T00:39:56;8.10;;;5.90;;
8466;SDS011;4270;48.148;11.648;2022-10-14T00:42:21;7.10;;;5.00;;
8466;SDS011;4270;48.148;11.648;2022-10-14T00:47:15;7.00;;;4.80;;
8466;SDS011;4270;48.148;11.648;2022-10-14T00:49:41;7.43;;;4.93;;
8466;SDS011;4270;48.148;11.648;2022-10-14T00:52:09;8.20;;;5.20;;
8466;SDS011;4270;48.148;11.648;2022-10-14T00:54:38;6.37;;;4.93;;
8466;SDS011;4270;48.148;11.648;2022-10-14T00:57:04;8.30;;;4.83;;
8466;SDS011;4270;48.148;11.648;2022-10-14T00:59:30;5.90;;;4.80;;
8466;SDS011;4270;48.148;11.648;2022-10-14T01:01:56;7.33;;;4.90;;
8466;SDS011;4270;48.148;11.648;2022-10-14T01:04:21;6.90;;;4.70;;
8466;SDS011;4270;48.148;11.648;2022-10-14T01:09:21;9.43;;;4.77;;
8466;SDS011;4270;48.148;11.648;2022-10-14T01:19:57;9.40;;;4.47;;
8466;SDS011;4270;48.148;11.648;2022-10-14T01:22:34;6.07;;;4.53;;
8466;SDS011;4270;48.148;11.648;2022-10-14T01:25:19;7.17;;;5.17;;
8466;SDS011;4270;48.148;11.648;2022-10-14T01:27:56;8.60;;;4.83;;
8466;SDS011;4270;48.148;11.648;2022-10-14T01:30:29;7.13;;;4.83;;
8466;SDS011;4270;48.148;11.648;2022-10-14T01:33:09;6.57;;;4.40;;
8466;SDS011;4270;48.148;11.648;2022-10-14T01:35:49;6.77;;;4.57;;
8466;SDS011;4270;48.148;11.648;2022-10-14T01:38:19;10.20;;;4.40;;
8466;SDS011;4270;48.148;11.648;2022-10-14T01:40:51;8.00;;;4.60;;
8466;SDS011;4270;48.148;11.648;2022-10-14T01:43:17;6.33;;;4.20;;
8466;SDS011;4270;48.148;11.648;2022-10-14T01:45:44;6.03;;;4.23;;
8466;SDS011;4270;48.148;11.648;2022-10-14T01:48:12;8.37;;;3.40;;
8466;SDS011;4270;48.148;11.648;2022-10-14T01:50:40;3.90;;;3.00;;
8466;SDS011;4270;48.148;11.648;2022-10-14T01:53:08;6.90;;;2.97;;
8466;SDS011;4270;48.148;11.648;2022-10-14T01:55:41;6.50;;;3.00;;
8466;SDS011;4270;48.148;11.648;2022-10-14T01:58:07;3.97;;;3.20;;
8466;SDS011;4270;48.148;11.648;2022-10-14T02:00:33;4.93;;;2.73;;
8466;SDS011;4270;48.148;11.648;2022-10-14T02:02:59;2.57;;;2.33;;
8466;SDS011;4270;48.148;11.648;2022-10-14T02:05:30;5.27;;;3.10;;
8466;SDS011;4270;48.148;11.648;2022-10-14T02:08:32;2.73;;;2.37;;
8466;SDS011;4270;48.148;11.648;2022-10-14T02:10:50;3.77;;;2.80;;
8466;SDS011;4270;48.148;11.648;2022-10-14T02:13:25;5.07;;;2.30;;
8466;SDS011;4270;48.148;11.648;2022-10-14T02:16:09;4.27;;;2.63;;
8466;SDS011;4270;48.148;11.648;2022-10-14T02:18:47;3.03;;;2.50;;
8466;SDS011;4270;48.148;11.648;2022-10-14T02:21:17;3.70;;;2.73;;
8466;SDS011;4270;48.148;11.648;2022-10-14T02:23:45;3.60;;;2.70;;
8466;SDS011;4270;48.148;11.648;2022-10-14T02:26:11;3.83;;;2.33;;
8466;SDS011;4270;48.148;11.648;2022-10-14T02:28:37;4.80;;;2.60;;
8466;SDS011;4270;48.148;11.648;2022-10-14T02:31:04;3.43;;;2.60;;
8466;SDS011;4270;48.148;11.648;2022-10-14T02:33:32;3.13;;;2.63;;
8466;SDS011;4270;48.148;11.648;2022-10-14T02:35:59;4.00;;;3.00;;
8466;SDS011;4270;48.148;11.648;2022-10-14T02:38:25;4.87;;;2.60;;
8466;SDS011;4270;48.148;11.648;2022-10-14T02:40:51;5.40;;;3.00;;
8466;SDS011;4270;48.148;11.648;2022-10-14T02:43:17;4.73;;;2.57;;
8466;SDS011;4270;48.148;11.648;2022-10-14T02:45:42;8.20;;;2.60;;
8466;SDS011;4270;48.148;11.648;2022-10-14T02:48:08;3.90;;;2.57;;
8466;SDS011;4270;48.148;11.648;2022-10-14T02:50:33;3.00;;;2.70;;
8466;SDS011;4270;48.148;11.648;2022-10-14T02:52:59;3.10;;;2.80;;
8466;SDS011;4270;48.148;11.648;2022-10-14T02:55:24;2.83;;;2.53;;
8466;SDS011;4270;48.148;11.648;2022-10-14T02:57:49;6.33;;;3.17;;
8466;SDS011;4270;48.148;11.648;2022-10-14T03:00:14;3.17;;;2.87;;
8466;SDS011;4270;48.148;11.648;2022-10-14T03:02:40;3.57;;;2.40;;
8466;SDS011;4270;48.148;11.648;2022-10-14T03:05:05;8.73;;;3.57;;
8466;SDS011;4270;48.148;11.648;2022-10-14T03:07:30;4.93;;;3.47;;
8466;SDS011;4270;48.148;11.648;2022-10-14T03:09:55;5.10;;;3.07;;
8466;SDS011;4270;48.148;11.648;2022-10-14T03:12:22;3.90;;;3.00;;
8466;SDS011;4270;48.148;11.648;2022-10-14T03:14:47;4.97;;;3.07;;
8466;SDS011;4270;48.148;11.648;2022-10-14T03:17:12;7.57;;;3.20;;
8466;SDS011;4270;48.148;11.648;2022-10-14T03:19:38;4.93;;;2.90;;
8466;SDS011;4270;48.148;11.648;2022-10-14T03:22:03;4.33;;;3.17;;
8466;SDS011;4270;48.148;11.648;2022-10-14T03:24:28;6.33;;;3.00;;
8466;SDS011;4270;48.148;11.648;2022-10-14T03:26:53;4.70;;;2.70;;
8466;SDS011;4270;48.148;11.648;2022-10-14T03:29:18;8.93;;;6.00;;
8466;SDS011;4270;48.148;11.648;2022-10-14T03:31:43;4.40;;;3.20;;
8466;SDS011;4270;48.148;11.648;2022-10-14T03:34:09;5.63;;;3.07;;
8466;SDS011;4270;48.148;11.648;2022-10-14T03:36:34;4.07;;;3.10;;
8466;SDS011;4270;48.148;11.648;2022-10-14T03:38:59;5.97;;;3.50;;
8466;SDS011;4270;48.148;11.648;2022-10-14T03:41:24;7.43;;;3.30;;
8466;SDS011;4270;48.148;11.648;2022-10-14T03:43:50;6.53;;;3.37;;
8466;SDS011;4270;48.148;11.648;2022-10-14T03:46:15;6.23;;;3.30;;
8466;SDS011;4270;48.148;11.648;2022-10-14T03:48:40;5.33;;;3.23;;
8466;SDS011;4270;48.148;11.648;2022-10-14T03:51:06;6.10;;;3.43;;
8466;SDS011;4270;48.148;11.648;2022-10-14T03:53:31;4.50;;;3.33;;
8466;SDS011;4270;48.148;11.648;2022-10-14T03:55:56;4.67;;;3.90;;
8466;SDS011;4270;48.148;11.648;2022-10-14T03:58:21;5.13;;;3.10;;
8466;SDS011;4270;48.148;11.648;2022-10-14T04:00:47;7.20;;;3.90;;
8466;SDS011;4270;48.148;11.648;2022-10-14T04:03:12;6.57;;;4.30;;
8466;SDS011;4270;48.148;11.648;2022-10-14T04:05:37;8.43;;;4.00;;
8466;SDS011;4270;48.148;11.648;2022-10-14T04:08:02;10.00;;;4.23;;
8466;SDS011;4270;48.148;11.648;2022-10-14T04:10:28;5.50;;;4.20;;
8466;SDS011;4270;48.148;11.648;2022-10-14T04:12:53;4.53;;;4.07;;
8466;SDS011;4270;48.148;11.648;2022-10-14T04:15:18;5.70;;;3.83;;
8466;SDS011;4270;48.148;11.648;2022-10-14T04:17:44;6.17;;;4.30;;
8466;SDS011;4270;48.148;11.648;2022-10-14T04:20:09;4.57;;;4.07;;
8466;SDS011;4270;48.148;11.648;2022-10-14T04:22:34;7.67;;;3.93;;
8466;SDS011;4270;48.148;11.648;2022-10-14T04:24:59;7.50;;;4.70;;
8466;SDS011;4270;48.148;11.648;2022-10-14T04:27:24;10.10;;;4.00;;
8466;SDS011;4270;48.148;11.648;2022-10-14T04:29:50;7.00;;;4.57;;
8466;SDS011;4270;48.148;11.648;2022-10-14T04:32:15;6.40;;;4.20;;
8466;SDS011;4270;48.148;11.648;2022-10-14T04:34:40;5.00;;;4.07;;
8466;SDS011;4270;48.148;11.648;2022-10-14T04:37:05;6.00;;;4.20;;
8466;SDS011;4270;48.148;11.648;2022-10-14T04:39:30;6.33;;;4.30;;
8466;SDS011;4270;48.148;11.648;2022-10-14T04:41:56;6.10;;;3.80;;
8466;SDS011;4270;48.148;11.648;2022-10-14T04:44:21;5.90;;;3.67;;
8466;SDS011;4270;48.148;11.648;2022-10-14T04:46:46;8.47;;;3.83;;
8466;SDS011;4270;48.148;11.648;2022-10-14T04:49:11;4.50;;;3.37;;
8466;SDS011;4270;48.148;11.648;2022-10-14T04:51:36;4.63;;;3.60;;
8466;SDS011;4270;48.148;11.648;2022-10-14T04:54:02;4.50;;;4.10;;
8466;SDS011;4270;48.148;11.648;2022-10-14T04:56:27;4.43;;;4.00;;
8466;SDS011;4270;48.148;11.648;2022-10-14T04:58:52;4.60;;;3.40;;
8466;SDS011;4270;48.148;11.648;2022-10-14T05:01:18;6.40;;;4.07;;
8466;SDS011;4270;48.148;11.648;2022-10-14T05:03:43;6.63;;;4.13;;
8466;SDS011;4270;48.148;11.648;2022-10-14T05:06:08;8.37;;;4.30;;
8466;SDS011;4270;48.148;11.648;2022-10-14T05:08:34;5.70;;;3.77;;
8466;SDS011;4270;48.148;11.648;2022-10-14T05:10:59;5.43;;;4.10;;
8466;SDS011;4270;48.148;11.648;2022-10-14T05:13:25;5.47;;;3.33;;
8466;SDS011;4270;48.148;11.648;2022-10-14T05:15:50;5.53;;;4.30;;
8466;SDS011;4270;48.148;11.648;2022-10-14T05:18:16;4.50;;;3.67;;
8466;SDS011;4270;48.148;11.648;2022-10-14T05:20:41;5.60;;;3.57;;
8466;SDS011;4270;48.148;11.648;2022-10-14T05:23:06;4.80;;;3.43;;
8466;SDS011;4270;48.148;11.648;2022-10-14T05:25:31;5.37;;;3.70;;
8466;SDS011;4270;48.148;11.648;2022-10-14T05:27:56;5.27;;;3.13;;
8466;SDS011;4270;48.148;11.648;2022-10-14T05:30:21;3.50;;;2.83;;
8466;SDS011;4270;48.148;11.648;2022-10-14T05:32:47;4.23;;;3.00;;
8466;SDS011;4270;48.148;11.648;2022-10-14T05:35:13;4.37;;;2.87;;
8466;SDS011;4270;48.148;11.648;2022-10-14T05:37:38;4.73;;;3.03;;
8466;SDS011;4270;48.148;11.648;2022-10-14T05:40:03;4.47;;;2.93;;
8466;SDS011;4270;48.148;11.648;2022-10-14T05:42:28;4.67;;;3.43;;
8466;SDS011;4270;48.148;11.648;2022-10-14T05:44:54;4.60;;;2.80;;
8466;SDS011;4270;48.148;11.648;2022-10-14T05:47:19;5.00;;;3.40;;
8466;SDS011;4270;48.148;11.648;2022-10-14T05:49:44;6.30;;;3.40;;
8466;SDS011;4270;48.148;11.648;2022-10-14T05:52:09;3.47;;;2.90;;
8466;SDS011;4270;48.148;11.648;2022-10-14T05:54:34;3.33;;;2.60;;
8466;SDS011;4270;48.148;11.648;2022-10-14T05:57:00;3.93;;;3.13;;
8466;SDS011;4270;48.148;11.648;2022-10-14T05:59:25;4.80;;;3.57;;
8466;SDS011;4270;48.148;11.648;2022-10-14T06:01:50;5.27;;;3.40;;
8466;SDS011;4270;48.148;11.648;2022-10-14T06:04:16;5.83;;;2.90;;
8466;SDS011;4270;48.148;11.648;2022-10-14T06:06:41;5.53;;;3.70;;
8466;SDS011;4270;48.148;11.648;2022-10-14T06:09:07;4.23;;;3.20;;
8466;SDS011;4270;48.148;11.648;2022-10-14T06:11:32;3.57;;;2.97;;
8466;SDS011;4270;48.148;11.648;2022-10-14T06:13:57;5.03;;;2.87;;
8466;SDS011;4270;48.148;11.648;2022-10-14T06:16:22;4.80;;;3.10;;
8466;SDS011;4270;48.148;11.648;2022-10-14T06:18:47;3.10;;;2.80;;
8466;SDS011;4270;48.148;11.648;2022-10-14T06:21:13;4.30;;;3.10;;
8466;SDS011;4270;48.148;11.648;2022-10-14T06:23:38;4.13;;;3.10;;
8466;SDS011;4270;48.148;11.648;2022-10-14T06:26:04;5.00;;;3.33;;
8466;SDS011;4270;48.148;11.648;2022-10-14T06:28:30;5.67;;;3.30;;
8466;SDS011;4270;48.148;11.648;2022-10-14T06:30:55;3.50;;;2.70;;
8466;SDS011;4270;48.148;11.648;2022-10-14T06:33:20;5.10;;;3.00;;
8466;SDS011;4270;48.148;11.648;2022-10-14T06:35:46;3.20;;;2.90;;
8466;SDS011;4270;48.148;11.648;2022-10-14T06:38:11;4.57;;;3.20;;
8466;SDS011;4270;48.148;11.648;2022-10-14T06:40:37;5.77;;;2.50;;
8466;SDS011;4270;48.148;11.648;2022-10-14T06:43:02;2.90;;;2.50;;
8466;SDS011;4270;48.148;11.648;2022-10-14T06:45:27;3.17;;;2.87;;
8466;SDS011;4270;48.148;11.648;2022-10-14T06:47:53;3.20;;;2.77;;
8466;SDS011;4270;48.148;11.648;2022-10-14T06:50:18;2.63;;;2.40;;
8466;SDS011;4270;48.148;11.648;2022-10-14T06:52:44;3.23;;;2.53;;
8466;SDS011;4270;48.148;11.648;2022-10-14T06:55:09;5.00;;;3.27;;
8466;SDS011;4270;48.148;11.648;2022-10-14T06:57:34;5.13;;;2.93;;
8466;SDS011;4270;48.148;11.648;2022-10-14T06:59:59;5.57;;;2.70;;
8466;SDS011;4270;48.148;11.648;2022-10-14T07:02:25;3.33;;;2.80;;
8466;SDS011;4270;48.148;11.648;2022-10-14T07:04:50;6.17;;;3.07;;
8466;SDS011;4270;48.148;11.648;2022-10-14T07:07:15;3.67;;;3.10;;
8466;SDS011;4270;48.148;11.648;2022-10-14T07:09:40;4.40;;;2.83;;
8466;SDS011;4270;48.148;11.648;2022-10-14T07:12:06;3.10;;;2.43;;
8466;SDS011;4270;48.148;11.648;2022-10-14T07:14:31;8.00;;;2.93;;
8466;SDS011;4270;48.148;11.648;2022-10-14T07:16:56;2.80;;;2.30;;
8466;SDS011;4270;48.148;11.648;2022-10-14T07:19:22;2.33;;;2.00;;
8466;SDS011;4270;48.148;11.648;2022-10-14T07:21:47;2.73;;;2.30;;
8466;SDS011;4270;48.148;11.648;2022-10-14T07:24:12;2.70;;;2.37;;
8466;SDS011;4270;48.148;11.648;2022-10-14T07:26:37;3.40;;;2.50;;
8466;SDS011;4270;48.148;11.648;2022-10-14T07:29:03;6.40;;;2.83;;
8466;SDS011;4270;48.148;11.648;2022-10-14T07:31:28;4.47;;;2.77;;
8466;SDS011;4270;48.148;11.648;2022-10-14T07:33:53;3.23;;;2.20;;
8466;SDS011;4270;48.148;11.648;2022-10-14T07:36:19;3.70;;;1.87;;
8466;SDS011;4270;48.148;11.648;2022-10-14T07:38:44;3.17;;;1.47;;
8466;SDS011;4270;48.148;11.648;2022-10-14T07:41:14;2.50;;;1.90;;
8466;SDS011;4270;48.148;11.648;2022-10-14T07:43:46;2.13;;;1.93;;
8466;SDS011;4270;48.148;11.648;2022-10-14T07:46:12;2.27;;;2.03;;
8466;SDS011;4270;48.148;11.648;2022-10-14T07:48:37;2.50;;;1.87;;
8466;SDS011;4270;48.148;11.648;2022-10-14T07:51:03;1.97;;;1.77;;
8466;SDS011;4270;48.148;11.648;2022-10-14T07:53:29;4.97;;;2.27;;
8466;SDS011;4270;48.148;11.648;2022-10-14T07:55:58;2.10;;;1.90;;
8466;SDS011;4270;48.148;11.648;2022-10-14T07:58:27;2.70;;;2.17;;
8466;SDS011;4270;48.148;11.648;2022-10-14T08:00:52;4.43;;;2.13;;
8466;SDS011;4270;48.148;11.648;2022-10-14T08:03:17;1.97;;;1.87;;
8466;SDS011;4270;48.148;11.648;2022-10-14T08:05:43;4.00;;;2.10;;
8466;SDS011;4270;48.148;11.648;2022-10-14T08:08:08;3.23;;;1.70;;
8466;SDS011;4270;48.148;11.648;2022-10-14T08:10:34;5.03;;;2.50;;
8466;SDS011;4270;48.148;11.648;2022-10-14T08:12:59;2.10;;;1.57;;
8466;SDS011;4270;48.148;11.648;2022-10-14T08:15:25;2.23;;;2.00;;
8466;SDS011;4270;48.148;11.648;2022-10-14T08:17:52;2.13;;;1.80;;
8466;SDS011;4270;48.148;11.648;2022-10-14T08:20:18;2.17;;;1.60;;
8466;SDS011;4270;48.148;11.648;2022-10-14T08:22:43;1.90;;;1.67;;
8466;SDS011;4270;48.148;11.648;2022-10-14T08:25:08;2.13;;;1.60;;
8466;SDS011;4270;48.148;11.648;2022-10-14T08:27:33;1.50;;;1.23;;
8466;SDS011;4270;48.148;11.648;2022-10-14T08:29:59;1.77;;;1.50;;
8466;SDS011;4270;48.148;11.648;2022-10-14T08:32:24;2.40;;;1.27;;
8466;SDS011;4270;48.148;11.648;2022-10-14T08:34:49;2.43;;;1.57;;
8466;SDS011;4270;48.148;11.648;2022-10-14T08:37:14;2.10;;;1.00;;
8466;SDS011;4270;48.148;11.648;2022-10-14T08:39:39;1.17;;;1.00;;
8466;SDS011;4270;48.148;11.648;2022-10-14T08:45:03;1.93;;;1.07;;
8466;SDS011;4270;48.148;11.648;2022-10-14T08:47:25;3.60;;;1.60;;
8466;SDS011;4270;48.148;11.648;2022-10-14T08:49:59;1.43;;;1.00;;
8466;SDS011;4270;48.148;11.648;2022-10-14T08:52:29;1.80;;;1.07;;
8466;SDS011;4270;48.148;11.648;2022-10-14T08:54:55;2.10;;;1.00;;
8466;SDS011;4270;48.148;11.648;2022-10-14T08:57:23;2.43;;;1.50;;
8466;SDS011;4270;48.148;11.648;2022-10-14T08:59:49;1.43;;;0.80;;
8466;SDS011;4270;48.148;11.648;2022-10-14T09:02:18;3.10;;;1.50;;
8466;SDS011;4270;48.148;11.648;2022-10-14T09:04:44;2.53;;;1.60;;
8466;SDS011;4270;48.148;11.648;2022-10-14T09:07:11;2.20;;;1.30;;
8466;SDS011;4270;48.148;11.648;2022-10-14T09:09:41;1.63;;;1.40;;
8466;SDS011;4270;48.148;11.648;2022-10-14T09:12:10;1.10;;;1.00;;
8466;SDS011;4270;48.148;11.648;2022-10-14T09:14:37;2.37;;;1.10;;
8466;SDS011;4270;48.148;11.648;2022-10-14T09:17:09;2.93;;;1.83;;
8466;SDS011;4270;48.148;11.648;2022-10-14T09:19:44;1.47;;;1.20;;
8466;SDS011;4270;48.148;11.648;2022-10-14T09:22:12;0.97;;;0.90;;
8466;SDS011;4270;48.148;11.648;2022-10-14T09:24:37;2.23;;;1.00;;
8466;SDS011;4270;48.148;11.648;2022-10-14T09:31:57;1.10;;;0.90;;
8466;SDS011;4270;48.148;11.648;2022-10-14T09:34:24;1.03;;;0.90;;
8466;SDS011;4270;48.148;11.648;2022-10-14T09:36:52;1.50;;;1.40;;
8466;SDS011;4270;48.148;11.648;2022-10-14T09:39:17;1.83;;;1.10;;
8466;SDS011;4270;48.148;11.648;2022-10-14T09:41:42;1.03;;;0.93;;
8466;SDS011;4270;48.148;11.648;2022-10-14T09:44:17;1.10;;;0.80;;
8466;SDS011;4270;48.148;11.648;2022-10-14T09:46:46;1.27;;;0.87;;
8466;SDS011;4270;48.148;11.648;2022-10-14T09:49:15;2.83;;;0.87;;
8466;SDS011;4270;48.148;11.648;2022-10-14T09:51:41;1.10;;;1.00;;
8466;SDS011;4270;48.148;11.648;2022-10-14T09:54:15;1.40;;;0.87;;
8466;SDS011;4270;48.148;11.648;2022-10-14T09:56:43;1.07;;;0.90;;
8466;SDS011;4270;48.148;11.648;2022-10-14T09:59:18;3.77;;;1.00;;
8466;SDS011;4270;48.148;11.648;2022-10-14T10:01:52;1.17;;;0.90;;
8466;SDS011;4270;48.148;11.648;2022-10-14T10:04:32;1.73;;;1.07;;
8466;SDS011;4270;48.148;11.648;2022-10-14T10:06:58;0.90;;;0.70;;
8466;SDS011;4270;48.148;11.648;2022-10-14T10:09:24;2.20;;;1.07;;
8466;SDS011;4270;48.148;11.648;2022-10-14T10:11:49;0.80;;;0.80;;
8466;SDS011;4270;48.148;11.648;2022-10-14T10:14:22;4.10;;;1.10;;
8466;SDS011;4270;48.148;11.648;2022-10-14T10:16:48;1.43;;;0.93;;
8466;SDS011;4270;48.148;11.648;2022-10-14T10:21:48;1.43;;;1.00;;
8466;SDS011;4270;48.148;11.648;2022-10-14T10:24:17;1.70;;;0.97;;
8466;SDS011;4270;48.148;11.648;2022-10-14T10:26:45;2.23;;;1.10;;
8466;SDS011;4270;48.148;11.648;2022-10-14T10:29:21;1.90;;;1.00;;
8466;SDS011;4270;48.148;11.648;2022-10-14T10:34:37;12.33;;;8.90;;
8466;SDS011;4270;48.148;11.648;2022-10-14T10:37:18;1.77;;;0.80;;
8466;SDS011;4270;48.148;11.648;2022-10-14T10:43:08;1.03;;;0.80;;
8466;SDS011;4270;48.148;11.648;2022-10-14T10:45:33;1.03;;;0.93;;
8466;SDS011;4270;48.148;11.648;2022-10-14T10:48:05;2.40;;;1.00;;
8466;SDS011;4270;48.148;11.648;2022-10-14T11:00:27;2.60;;;0.77;;
8466;SDS011;4270;48.148;11.648;2022-10-14T11:05:43;0.97;;;0.83;;
8466;SDS011;4270;48.148;11.648;2022-10-14T11:11:07;0.80;;;0.70;;
8466;SDS011;4270;48.148;11.648;2022-10-14T11:13:55;0.83;;;0.80;;
8466;SDS011;4270;48.148;11.648;2022-10-14T11:16:35;0.83;;;0.77;;
8466;SDS011;4270;48.148;11.648;2022-10-14T11:19:07;1.43;;;1.07;;
8466;SDS011;4270;48.148;11.648;2022-10-14T11:24:02;2.40;;;1.23;;
8466;SDS011;4270;48.148;11.648;2022-10-14T11:29:16;1.90;;;1.20;;
8466;SDS011;4270;48.148;11.648;2022-10-14T11:35:01;1.63;;;1.00;;
8466;SDS011;4270;48.148;11.648;2022-10-14T11:37:09;1.40;;;1.00;;
8466;SDS011;4270;48.148;11.648;2022-10-14T11:40:00;1.40;;;1.20;;
8466;SDS011;4270;48.148;11.648;2022-10-14T11:45:17;1.60;;;1.00;;
8466;SDS011;4270;48.148;11.648;2022-10-14T11:47:44;2.70;;;1.00;;
8466;SDS011;4270;48.148;11.648;2022-10-14T11:50:14;1.00;;;0.90;;
8466;SDS011;4270;48.148;11.648;2022-10-14T11:52:51;1.80;;;1.00;;
8466;SDS011;4270;48.148;11.648;2022-10-14T11:55:19;1.20;;;1.00;;
8466;SDS011;4270;48.148;11.648;2022-10-14T11:58:08;2.10;;;1.17;;
8466;SDS011;4270;48.148;11.648;2022-10-14T12:00:34;1.50;;;1.07;;
8466;SDS011;4270;48.148;11.648;2022-10-14T12:03:05;1.67;;;0.90;;
8466;SDS011;4270;48.148;11.648;2022-10-14T12:10:39;1.03;;;0.90;;
8466;SDS011;4270;48.148;11.648;2022-10-14T12:13:09;0.90;;;0.80;;
8466;SDS011;4270;48.148;11.648;2022-10-14T12:15:37;1.30;;;1.00;;
8466;SDS011;4270;48.148;11.648;2022-10-14T12:18:04;2.07;;;1.00;;
8466;SDS011;4270;48.148;11.648;2022-10-14T12:20:42;2.27;;;1.00;;
8466;SDS011;4270;48.148;11.648;2022-10-14T12:23:12;3.37;;;1.00;;
8466;SDS011;4270;48.148;11.648;2022-10-14T12:25:47;1.57;;;1.03;;
8466;SDS011;4270;48.148;11.648;2022-10-14T12:28:14;1.63;;;0.90;;
8466;SDS011;4270;48.148;11.648;2022-10-14T12:30:41;1.40;;;0.97;;
8466;SDS011;4270;48.148;11.648;2022-10-14T12:33:07;1.70;;;0.87;;
8466;SDS011;4270;48.148;11.648;2022-10-14T12:38:14;1.37;;;0.90;;
8466;SDS011;4270;48.148;11.648;2022-10-14T12:40:39;1.27;;;0.93;;
8466;SDS011;4270;48.148;11.648;2022-10-14T12:43:17;2.07;;;1.10;;
8466;SDS011;4270;48.148;11.648;2022-10-14T12:45:48;1.20;;;0.97;;
8466;SDS011;4270;48.148;11.648;2022-10-14T12:48:15;0.83;;;0.83;;
8466;SDS011;4270;48.148;11.648;2022-10-14T12:50:43;1.57;;;1.10;;
8466;SDS011;4270;48.148;11.648;2022-10-14T12:53:28;6.03;;;1.47;;
8466;SDS011;4270;48.148;11.648;2022-10-14T12:55:58;0.80;;;0.80;;
8466;SDS011;4270;48.148;11.648;2022-10-14T13:01:31;3.47;;;2.40;;
8466;SDS011;4270;48.148;11.648;2022-10-14T13:04:19;1.33;;;1.07;;
8466;SDS011;4270;48.148;11.648;2022-10-14T13:06:33;2.40;;;1.10;;
8466;SDS011;4270;48.148;11.648;2022-10-14T13:11:36;1.30;;;1.00;;
8466;SDS011;4270;48.148;11.648;2022-10-14T13:14:16;2.60;;;1.10;;
8466;SDS011;4270;48.148;11.648;2022-10-14T13:19:10;1.40;;;1.30;;
8466;SDS011;4270;48.148;11.648;2022-10-14T13:21:53;1.10;;;1.00;;
8466;SDS011;4270;48.148;11.648;2022-10-14T13:24:20;0.70;;;0.70;;
8466;SDS011;4270;48.148;11.648;2022-10-14T13:39:39;1.30;;;0.90;;
8466;SDS011;4270;48.148;11.648;2022-10-14T13:42:04;4.40;;;1.20;;
8466;SDS011;4270;48.148;11.648;2022-10-14T13:44:29;1.47;;;0.90;;
8466;SDS011;4270;48.148;11.648;2022-10-14T13:46:55;1.10;;;1.00;;
8466;SDS011;4270;48.148;11.648;2022-10-14T13:49:22;2.90;;;1.20;;
8466;SDS011;4270;48.148;11.648;2022-10-14T13:57:29;1.83;;;0.90;;
8466;SDS011;4270;48.148;11.648;2022-10-14T13:59:30;2.60;;;1.70;;
8466;SDS011;4270;48.148;11.648;2022-10-14T14:01:56;1.10;;;0.93;;
8466;SDS011;4270;48.148;11.648;2022-10-14T14:04:23;2.57;;;1.50;;
8466;SDS011;4270;48.148;11.648;2022-10-14T14:06:49;2.13;;;1.37;;
8466;SDS011;4270;48.148;11.648;2022-10-14T14:09:17;1.60;;;1.20;;
8466;SDS011;4270;48.148;11.648;2022-10-14T14:11:44;1.00;;;0.93;;
8466;SDS011;4270;48.148;11.648;2022-10-14T14:14:18;2.70;;;1.10;;
8466;SDS011;4270;48.148;11.648;2022-10-14T14:17:00;2.87;;;1.33;;
8466;SDS011;4270;48.148;11.648;2022-10-14T14:19:44;2.10;;;1.23;;
8466;SDS011;4270;48.148;11.648;2022-10-14T14:24:41;2.87;;;1.50;;
8466;SDS011;4270;48.148;11.648;2022-10-14T14:27:11;2.00;;;1.60;;
8466;SDS011;4270;48.148;11.648;2022-10-14T14:29:39;1.97;;;1.17;;
8466;SDS011;4270;48.148;11.648;2022-10-14T14:32:04;2.13;;;1.30;;
8466;SDS011;4270;48.148;11.648;2022-10-14T14:34:31;1.27;;;1.10;;
8466;SDS011;4270;48.148;11.648;2022-10-14T14:36:56;6.13;;;1.70;;
8466;SDS011;4270;48.148;11.648;2022-10-14T14:39:28;2.13;;;1.43;;
8466;SDS011;4270;48.148;11.648;2022-10-14T14:41:54;2.60;;;1.90;;
8466;SDS011;4270;48.148;11.648;2022-10-14T14:44:21;1.60;;;1.50;;
8466;SDS011;4270;48.148;11.648;2022-10-14T14:46:47;2.03;;;1.40;;
8466;SDS011;4270;48.148;11.648;2022-10-14T14:49:14;5.23;;;2.50;;
8466;SDS011;4270;48.148;11.648;2022-10-14T14:51:40;2.73;;;1.90;;
8466;SDS011;4270;48.148;11.648;2022-10-14T14:54:06;2.93;;;2.00;;
8466;SDS011;4270;48.148;11.648;2022-10-14T14:56:32;5.10;;;2.17;;
8466;SDS011;4270;48.148;11.648;2022-10-14T14:59:05;4.43;;;1.80;;
8466;SDS011;4270;48.148;11.648;2022-10-14T15:01:31;4.30;;;2.17;;
8466;SDS011;4270;48.148;11.648;2022-10-14T15:03:57;4.00;;;2.13;;
8466;SDS011;4270;48.148;11.648;2022-10-14T15:06:23;1.90;;;1.67;;
8466;SDS011;4270;48.148;11.648;2022-10-14T15:08:49;3.83;;;1.70;;
8466;SDS011;4270;48.148;11.648;2022-10-14T15:11:15;2.67;;;1.87;;
8466;SDS011;4270;48.148;11.648;2022-10-14T15:16:06;2.90;;;2.10;;
8466;SDS011;4270;48.148;11.648;2022-10-14T15:18:31;3.83;;;3.47;;
8466;SDS011;4270;48.148;11.648;2022-10-14T15:23:38;3.83;;;2.10;;
8466;SDS011;4270;48.148;11.648;2022-10-14T15:26:04;1.80;;;1.70;;
8466;SDS011;4270;48.148;11.648;2022-10-14T15:28:31;1.90;;;1.70;;
8466;SDS011;4270;48.148;11.648;2022-10-14T15:30:56;1.80;;;1.70;;
8466;SDS011;4270;48.148;11.648;2022-10-14T15:33:22;2.73;;;1.60;;
8466;SDS011;4270;48.148;11.648;2022-10-14T15:36:00;3.73;;;1.90;;
8466;SDS011;4270;48.148;11.648;2022-10-14T15:38:26;4.20;;;1.60;;
8466;SDS011;4270;48.148;11.648;2022-10-14T15:40:52;4.90;;;1.90;;
8466;SDS011;4270;48.148;11.648;2022-10-14T15:43:21;5.03;;;2.10;;
8466;SDS011;4270;48.148;11.648;2022-10-14T15:45:48;1.90;;;1.73;;
8466;SDS011;4270;48.148;11.648;2022-10-14T15:48:42;2.50;;;1.93;;
8466;SDS011;4270;48.148;11.648;2022-10-14T15:51:11;2.50;;;1.80;;
8466;SDS011;4270;48.148;11.648;2022-10-14T15:53:38;3.27;;;2.07;;
8466;SDS011;4270;48.148;11.648;2022-10-14T15:56:03;1.90;;;1.70;;
8466;SDS011;4270;48.148;11.648;2022-10-14T15:58:28;6.00;;;2.33;;
8466;SDS011;4270;48.148;11.648;2022-10-14T16:00:54;2.67;;;2.27;;
8466;SDS011;4270;48.148;11.648;2022-10-14T16:03:20;3.33;;;2.30;;
8466;SDS011;4270;48.148;11.648;2022-10-14T16:05:45;3.53;;;2.53;;
8466;SDS011;4270;48.148;11.648;2022-10-14T16:08:13;3.20;;;2.40;;
8466;SDS011;4270;48.148;11.648;2022-10-14T16:10:39;2.43;;;1.80;;
8466;SDS011;4270;48.148;11.648;2022-10-14T16:13:07;3.03;;;2.13;;
8466;SDS011;4270;48.148;11.648;2022-10-14T16:15:34;3.00;;;1.73;;
8466;SDS011;4270;48.148;11.648;2022-10-14T16:18:02;3.13;;;1.80;;
8466;SDS011;4270;48.148;11.648;2022-10-14T16:20:28;2.60;;;2.40;;
8466;SDS011;4270;48.148;11.648;2022-10-14T16:22:54;3.10;;;2.30;;
8466;SDS011;4270;48.148;11.648;2022-10-14T16:25:42;2.40;;;2.20;;
8466;SDS011;4270;48.148;11.648;2022-10-14T16:28:07;4.43;;;2.27;;
8466;SDS011;4270;48.148;11.648;2022-10-14T16:30:33;3.17;;;2.40;;
8466;SDS011;4270;48.148;11.648;2022-10-14T16:32:59;4.90;;;2.10;;
8466;SDS011;4270;48.148;11.648;2022-10-14T16:35:24;3.10;;;2.30;;
8466;SDS011;4270;48.148;11.648;2022-10-14T16:37:49;4.60;;;2.60;;
8466;SDS011;4270;48.148;11.648;2022-10-14T16:40:16;3.80;;;2.43;;